Aérodrome :
LOGIN :

S'inscrire | Disclaimer

   EN    FR    IT 

 










Légende :    VFR   VFR Marginal   IFR   IFR Intensif   IFR Très Intensif
Visi : 
Plafond : 
>= 8 km
>= 3000ft
5 à 8 km
1000 à 3000 ft
1500m à 5 km
500 à 1000 ft
800 à 1500m
200 à 500 ft
< 800m
< 200 ft
Symboles :   Orages  Brouillard  Fortes neiges  Fortes précipitations  Vent > 20 kt
SIGMETs :   Divers  Orages  Givrage  Turbulence  Onde Orograph.  Cendres Volcan.






- Altitude de l'aérodrome : 616 ft
- Code IATA : PUF


LFBP - Pau

DERNIER METAR :
  • 291430Z AUTO VRB05KT 9999 FEW076 29/13 Q1014 NOSIG

METARs EXPIRÉS :
  • 291400Z AUTO 34006KT 260V060 CAVOK 29/12 Q1014 NOSIG
  • 291330Z AUTO 07005KT 020V160 CAVOK 29/11 Q1014 NOSIG
  • 291300Z AUTO 02004KT 270V060 CAVOK 29/10 Q1015 NOSIG
  • 291230Z AUTO 34005KT 280V050 CAVOK 29/11 Q1015 NOSIG
  • 291200Z AUTO 21003KT 140V290 CAVOK 29/11 Q1015 TEMPO 36010KT

TAF TAF LFBP
Valide du 29 à 12h jusqu'au 30 à 12h UTC


291100Z 2912/3012 VRB03KT CAVOK
TEMPO 2912/2918 36010KT



MET'MAP, la Météo Aéronautique d'un coup d'oeil ! - Copyright ORBIFLY Décembre 2007 - Disclaimer

ORBIFLY MET'MAP TEAM :

Programmation & Développement : Alexandra Zaïnal
Sur une idée originale de : Baudouin d'Aumeries
Assistance à la programmation : Marc-Olivier Méhu
Soutien technique & logistique : Manuel Goepfert

Contact : metmap@orbifly.com




SOURCES & CREDITS :

   NOAA